Clarks Hill, South Carolina
Current Conditions -  °F | °C
As of 2:53 AM on Tuesday 21 Oct 2014 (Local Time) from KDNL Reporting Station
Clear Clear  
Wind Chill: 60°   Ceiling: Unl
Heat Index: 60°   Visibility: 10mi
Dew Point: 50°   Wind: 0mph
Humidity: 69%   Direction: NA
Pressure: 29.99"   Gusts: NA
Location:  33.67°N, 82.17°W
Report Text: KDNL 210653Z AUTO 00000KT 10SM CLR 16/10 A2999 RMK AO2 SLP150 T01560100
Loading
Personal Weather Stations






























Interactive Weather Map
Tropical Storm Tracking
New forecast layout! Learn more

10-Day Weather Forecast

Advertisements
Track Severe Weather on mobile